Северо-западная Россия

РегЦ Санкт-Петербург

Региональный Центр Единой Системы Организации Воздушного Движения (РегЦ ЕС ОрВД) Санкт-Петербург является структурным подразделением VATRUS.

В зону ответственности центра в сети VATSIM входит воздушное пространство над территориями Ленинградской, Новгородской, Псковской, Вологодской области, Мурманской, Архангельской областями, а так же Республики Карелия и Коми, Ненецкого АО.

Лого Северо-западная Россия
Контакты

FSS региона
Обозначение
RU-NWC_FSS
Позывной
Северо-Запад Контроль
Частота
135.620
Примечание
Top-down
Инструкторы региона
Akhmadjon Saidov (Instructor)
Alexandr Vaganov * (Controller)
Alexey Kaznakov (Instructor)
Dmitry Bugaichuk * (Senior Student)
Ekaterina Romanova (Instructor)
Maxim Demidov * (Controller)
Nikita Assorov (Instructor)
Stanley Yorke * (Controller)
Yury Koryagin (Instructor)
Включает в себя

РПИ Калининград
РПИ Санкт-Петербург

Диспетчеры региона

Диспетчер Рейтинг Допуски *
Akhmadjon Saidov Instructor ULLL_CTR
Aleksandr Manko Controller ULLL_CTR
Alexandr Vaganov Controller ULLL_CTR
Alexey Zimin Senior Controller ULLL_CTR
Dmitry Bugaichuk Senior Student ULLL_CTR *
Ekaterina Romanova Instructor ULLL_CTR
Maxim Demidov Controller ULLL_CTR
Mihail Kolesnik Controller ULLL_CTR
Nikita Assorov Instructor UMKK_CTR
Serafim Bedershtet Controller ULLL_CTR
Stanley Yorke Controller ULLL_CTR
Vadim Drachev Controller ULLL_CTR
Yan Stetsenko Senior Student ULLL_CTR *
Akmal Idrissov Senior Student ULLL_2_APP, ULLL_1_APP, ULLL_APP
Aleksandr Mirtov Student ULLI_GND
Alexandr Sosnovsky Student 2 ULLI_1_TWR, ULLI_TWR, ULLI_3_TWR, ULLI_2_TWR
Andrey Tarasov Student 2 ULLI_2_TWR, ULLI_1_TWR, ULLI_TWR, ULLI_3_TWR
Andrey Volanskiy Student 2 ULLI_1_TWR, ULLI_TWR, ULLI_3_TWR, ULLI_2_TWR
Arseny Sitnikov Student 2 ULLI_3_TWR, ULLI_2_TWR, ULLI_1_TWR, ULLI_TWR
Artem Badalov Senior Student ULLL_2_APP, ULLL_1_APP, ULLL_APP
Daniil Kayruk Student 2 ULLI_TWR, ULLI_3_TWR, ULLI_2_TWR, ULLI_1_TWR
David Markarian Student 2 ULLI_1_TWR, ULLI_TWR, ULLI_3_TWR, ULLI_2_TWR
Denis Makosov Senior Student ULLI_1_TWR, ULLI_TWR, ULLI_3_TWR, ULLI_2_TWR
Dmitrii Ermakov Student 2 ULLI_2_TWR*, ULLI_1_TWR*, ULLI_TWR*, ULLI_3_TWR*
Dmitry Berezin Student ULLI_GND
Grigoriy Novikov Student ULLI_GND
Johan Nasstrom Student 2 ULLI_2_TWR, ULLI_1_TWR, ULLI_TWR, ULLI_3_TWR
Mikhail Satsik Senior Student ULLI_R_APP
Nikita Ovsyannikov Student ULLI_GND
Nikita Voytko Senior Student ULLL_2_APP, ULLL_1_APP, ULLL_APP
Oleg Alov Student 2 ULLL_1_APP*, ULLI_2_TWR, ULLL_APP*, ULLI_1_TWR, ULLL_2_APP*, ULLI_TWR, ULLI_3_TWR
Pavel Romanov Student ULLI_GND
Robert Farber Controller ULLI_2_TWR, ULLI_1_TWR, ULLI_TWR, ULLI_3_TWR
Sofya Belyaeva Student 2 ULLI_2_TWR, ULLI_1_TWR, ULLI_TWR, ULLI_3_TWR
Yakov Polushkin Student ULLI_GND
Yury Pushkaryov Student 2 ULLI_TWR, ULLL_1_APP*, ULLI_3_TWR, ULLL_APP*, ULLI_2_TWR, ULLI_1_TWR, ULLL_2_APP*

Аэропорты региона

ICAO Город Название Погода
ULLI Санкт-Петербург Пулково ULLI 121830Z 19003MPS 9000 FEW046 18/16 Q1021 R28L/090060 NOSIG
ULAA Архангельск Архангельск ULAA 121830Z 28003MPS 9999 FEW033 13/09 Q1015 R26/CLRD70 NOSIG RMK QFE759/1013
UMKK Калининград Калининград UMKK 121830Z 04003MPS CAVOK 21/18 Q1023 R24/CLRD95 NOSIG RMK QFE766/1021
ULKK Котлас Котлас
XLLV Левашово Левашово
ULMM Мурманск Мурманск ULMM 121830Z 25002MPS CAVOK 12/06 Q1010 R31/190065 NOSIG RMK QFE750
ULAM Нарьян-Мар Нарьян-Мар
ULPB Петрозаводск Бесовец ULPB 121800Z AUTO 22002MPS 9999 // 18/12 Q1020 RMK QFE761/1015
ULOO Псков Псков ULOO 121830Z 00000MPS CAVOK 16/15 Q1023 R19/090060 NOSIG RMK QFE763
UUYY Сыктывкар Сыктывкар UUYY 121830Z VRB02MPS 9999 FEW033CB 17/09 Q1012 R18/CLRD61 NOSIG RMK QFE750/1001
ULWC Череповец Череповец ULWC 121830Z 00000MPS CAVOK 14/14 Q1021 R21/010063 NOSIG RMK QFE756/1008